sensor_id;sensor_type;location;lat;lon;timestamp;pressure;altitude;pressure_sealevel;temperature;humidity
14800;BME280;7491;57.750;11.970;2023-12-20T00:00:15;75405.44;;;-142.11;100.00
14800;BME280;7491;57.750;11.970;2023-12-20T00:02:42;75413.56;;;-142.11;100.00
14800;BME280;7491;57.750;11.970;2023-12-20T00:05:12;75397.28;;;-142.11;100.00
14800;BME280;7491;57.750;11.970;2023-12-20T00:07:39;75391.16;;;-142.11;100.00
14800;BME280;7491;57.750;11.970;2023-12-20T00:10:06;75391.16;;;-142.11;100.00
14800;BME280;7491;57.750;11.970;2023-12-20T00:12:33;75391.16;;;-142.11;100.00
14800;BME280;7491;57.750;11.970;2023-12-20T00:15:01;75389.13;;;-142.11;100.00
14800;BME280;7491;57.750;11.970;2023-12-20T00:17:28;75401.34;;;-142.11;100.00
14800;BME280;7491;57.750;11.970;2023-12-20T00:19:55;75385.03;;;-142.11;100.00
14800;BME280;7491;57.750;11.970;2023-12-20T00:22:21;75372.81;;;-142.11;100.00
14800;BME280;7491;57.750;11.970;2023-12-20T00:24:48;75364.66;;;-142.11;100.00
14800;BME280;7491;57.750;11.970;2023-12-20T00:27:14;75356.50;;;-142.11;100.00
14800;BME280;7491;57.750;11.970;2023-12-20T00:29:41;75391.16;;;-142.11;100.00
14800;BME280;7491;57.750;11.970;2023-12-20T00:32:14;75378.94;;;-142.11;100.00
14800;BME280;7491;57.750;11.970;2023-12-20T00:34:41;75364.66;;;-142.11;100.00
14800;BME280;7491;57.750;11.970;2023-12-20T00:37:07;75356.50;;;-142.11;100.00
14800;BME280;7491;57.750;11.970;2023-12-20T00:39:34;75354.47;;;-142.11;100.00
14800;BME280;7491;57.750;11.970;2023-12-20T00:42:01;75350.41;;;-142.11;100.00
14800;BME280;7491;57.750;11.970;2023-12-20T00:44:27;75352.44;;;-142.11;100.00
14800;BME280;7491;57.750;11.970;2023-12-20T00:46:54;75342.25;;;-142.11;100.00
14800;BME280;7491;57.750;11.970;2023-12-20T00:49:22;75330.03;;;-142.11;100.00
14800;BME280;7491;57.750;11.970;2023-12-20T00:51:47;75330.03;;;-142.11;100.00
14800;BME280;7491;57.750;11.970;2023-12-20T00:54:15;75334.09;;;-142.11;100.00
14800;BME280;7491;57.750;11.970;2023-12-20T00:56:42;75311.69;;;-142.11;100.00
14800;BME280;7491;57.750;11.970;2023-12-20T00:59:09;75325.94;;;-142.11;100.00
14800;BME280;7491;57.750;11.970;2023-12-20T01:01:36;75315.75;;;-142.11;100.00
14800;BME280;7491;57.750;11.970;2023-12-20T01:04:03;75301.50;;;-142.11;100.00
14800;BME280;7491;57.750;11.970;2023-12-20T01:06:32;75330.03;;;-142.11;100.00
14800;BME280;7491;57.750;11.970;2023-12-20T01:08:58;75311.69;;;-142.11;100.00
14800;BME280;7491;57.750;11.970;2023-12-20T01:11:25;75303.53;;;-142.11;100.00
14800;BME280;7491;57.750;11.970;2023-12-20T01:13:51;75311.69;;;-142.11;100.00
14800;BME280;7491;57.750;11.970;2023-12-20T01:16:18;75309.63;;;-142.11;100.00
14800;BME280;7491;57.750;11.970;2023-12-20T01:18:45;75311.69;;;-142.11;100.00
14800;BME280;7491;57.750;11.970;2023-12-20T01:21:12;75293.34;;;-142.11;100.00
14800;BME280;7491;57.750;11.970;2023-12-20T01:23:40;75295.38;;;-142.11;100.00
14800;BME280;7491;57.750;11.970;2023-12-20T01:26:07;75270.91;;;-142.11;100.00
14800;BME280;7491;57.750;11.970;2023-12-20T01:28:33;75275.00;;;-142.11;100.00
14800;BME280;7491;57.750;11.970;2023-12-20T01:31:00;75268.88;;;-142.11;100.00
14800;BME280;7491;57.750;11.970;2023-12-20T01:33:26;75264.81;;;-142.11;100.00
14800;BME280;7491;57.750;11.970;2023-12-20T01:35:53;75258.69;;;-142.11;100.00
14800;BME280;7491;57.750;11.970;2023-12-20T01:38:20;75256.66;;;-142.11;100.00
14800;BME280;7491;57.750;11.970;2023-12-20T01:40:48;75258.69;;;-142.11;100.00
14800;BME280;7491;57.750;11.970;2023-12-20T01:43:14;75252.56;;;-142.11;100.00
14800;BME280;7491;57.750;11.970;2023-12-20T01:45:41;75244.44;;;-142.11;100.00
14800;BME280;7491;57.750;11.970;2023-12-20T01:48:08;75246.47;;;-142.11;100.00
14800;BME280;7491;57.750;11.970;2023-12-20T01:50:36;75242.38;;;-142.11;100.00
14800;BME280;7491;57.750;11.970;2023-12-20T01:53:05;75240.34;;;-142.11;100.00
14800;BME280;7491;57.750;11.970;2023-12-20T01:55:34;75248.50;;;-142.11;100.00
14800;BME280;7491;57.750;11.970;2023-12-20T01:58:03;75244.44;;;-142.11;100.00
14800;BME280;7491;57.750;11.970;2023-12-20T02:00:31;75215.91;;;-142.11;100.00
14800;BME280;7491;57.750;11.970;2023-12-20T02:03:00;75217.94;;;-142.11;100.00
14800;BME280;7491;57.750;11.970;2023-12-20T02:05:27;75213.84;;;-142.11;100.00
14800;BME280;7491;57.750;11.970;2023-12-20T02:07:55;75199.59;;;-142.11;100.00
14800;BME280;7491;57.750;11.970;2023-12-20T02:10:20;75201.63;;;-142.11;100.00
14800;BME280;7491;57.750;11.970;2023-12-20T02:12:48;75197.56;;;-142.11;100.00
14800;BME280;7491;57.750;11.970;2023-12-20T02:15:16;75183.28;;;-142.11;100.00
14800;BME280;7491;57.750;11.970;2023-12-20T02:17:43;75177.16;;;-142.11;100.00
14800;BME280;7491;57.750;11.970;2023-12-20T02:20:10;75191.44;;;-142.11;100.00
14800;BME280;7491;57.750;11.970;2023-12-20T02:22:38;75195.50;;;-142.11;100.00
14800;BME280;7491;57.750;11.970;2023-12-20T02:25:06;75164.94;;;-142.11;100.00
14800;BME280;7491;57.750;11.970;2023-12-20T02:27:33;75185.31;;;-142.11;100.00
14800;BME280;7491;57.750;11.970;2023-12-20T02:30:00;75169.03;;;-142.11;100.00
14800;BME280;7491;57.750;11.970;2023-12-20T02:32:28;75173.09;;;-142.11;100.00
14800;BME280;7491;57.750;11.970;2023-12-20T02:34:55;75175.13;;;-142.11;100.00
14800;BME280;7491;57.750;11.970;2023-12-20T02:37:22;75146.59;;;-142.11;100.00
14800;BME280;7491;57.750;11.970;2023-12-20T02:39:50;75142.53;;;-142.11;100.00
14800;BME280;7491;57.750;11.970;2023-12-20T02:42:17;75150.69;;;-142.11;100.00
14800;BME280;7491;57.750;11.970;2023-12-20T02:44:44;75140.50;;;-142.11;100.00
14800;BME280;7491;57.750;11.970;2023-12-20T02:47:10;75128.25;;;-142.11;100.00
14800;BME280;7491;57.750;11.970;2023-12-20T02:49:37;75128.25;;;-142.11;100.00
14800;BME280;7491;57.750;11.970;2023-12-20T02:52:04;75128.25;;;-142.11;100.00
14800;BME280;7491;57.750;11.970;2023-12-20T02:54:31;75122.16;;;-142.11;100.00
14800;BME280;7491;57.750;11.970;2023-12-20T02:56:59;75126.22;;;-142.11;100.00
14800;BME280;7491;57.750;11.970;2023-12-20T02:59:25;75144.56;;;-142.11;100.00
14800;BME280;7491;57.750;11.970;2023-12-20T03:01:52;75126.22;;;-142.11;100.00
14800;BME280;7491;57.750;11.970;2023-12-20T03:04:19;75105.84;;;-142.11;100.00
14800;BME280;7491;57.750;11.970;2023-12-20T03:06:45;75118.06;;;-142.11;100.00
14800;BME280;7491;57.750;11.970;2023-12-20T03:09:12;75087.50;;;-142.11;100.00
14800;BME280;7491;57.750;11.970;2023-12-20T03:11:39;75087.50;;;-142.11;100.00
14800;BME280;7491;57.750;11.970;2023-12-20T03:14:07;75093.63;;;-142.11;100.00
14800;BME280;7491;57.750;11.970;2023-12-20T03:16:33;75087.50;;;-142.11;100.00
14800;BME280;7491;57.750;11.970;2023-12-20T03:19:00;75077.31;;;-142.11;100.00
14800;BME280;7491;57.750;11.970;2023-12-20T03:21:27;75075.28;;;-142.11;100.00
14800;BME280;7491;57.750;11.970;2023-12-20T03:23:53;75081.41;;;-142.11;100.00
14800;BME280;7491;57.750;11.970;2023-12-20T03:26:20;75079.34;;;-142.11;100.00
14800;BME280;7491;57.750;11.970;2023-12-20T03:28:47;75089.53;;;-142.11;100.00
14800;BME280;7491;57.750;11.970;2023-12-20T03:31:16;75069.16;;;-142.11;100.00
14800;BME280;7491;57.750;11.970;2023-12-20T03:33:42;75091.59;;;-142.11;100.00
14800;BME280;7491;57.750;11.970;2023-12-20T03:36:09;75103.81;;;-142.11;100.00
14800;BME280;7491;57.750;11.970;2023-12-20T03:38:36;75097.69;;;-142.11;100.00
14800;BME280;7491;57.750;11.970;2023-12-20T03:41:03;75124.19;;;-142.11;100.00
14800;BME280;7491;57.750;11.970;2023-12-20T03:43:29;75071.19;;;-142.11;100.00
14800;BME280;7491;57.750;11.970;2023-12-20T03:45:55;75075.28;;;-142.11;100.00
14800;BME280;7491;57.750;11.970;2023-12-20T03:48:23;75083.44;;;-142.11;100.00
14800;BME280;7491;57.750;11.970;2023-12-20T03:50:49;75097.69;;;-142.11;100.00
14800;BME280;7491;57.750;11.970;2023-12-20T03:53:16;75097.69;;;-142.11;100.00
14800;BME280;7491;57.750;11.970;2023-12-20T03:55:43;75087.50;;;-142.11;100.00
14800;BME280;7491;57.750;11.970;2023-12-20T03:58:09;75075.28;;;-142.11;100.00
14800;BME280;7491;57.750;11.970;2023-12-20T04:00:36;75069.16;;;-142.11;100.00
14800;BME280;7491;57.750;11.970;2023-12-20T04:03:03;75079.34;;;-142.11;100.00
14800;BME280;7491;57.750;11.970;2023-12-20T04:05:31;75067.13;;;-142.11;100.00
14800;BME280;7491;57.750;11.970;2023-12-20T04:08:01;75063.06;;;-142.11;100.00
14800;BME280;7491;57.750;11.970;2023-12-20T04:10:28;75067.13;;;-142.11;100.00
14800;BME280;7491;57.750;11.970;2023-12-20T04:12:55;75058.97;;;-142.11;100.00
14800;BME280;7491;57.750;11.970;2023-12-20T04:15:21;75040.63;;;-142.11;100.00
14800;BME280;7491;57.750;11.970;2023-12-20T04:17:48;75046.75;;;-142.11;100.00
14800;BME280;7491;57.750;11.970;2023-12-20T04:20:14;75067.13;;;-142.11;100.00
14800;BME280;7491;57.750;11.970;2023-12-20T04:22:42;75093.63;;;-142.11;100.00
14800;BME280;7491;57.750;11.970;2023-12-20T04:25:09;75083.44;;;-142.11;100.00
14800;BME280;7491;57.750;11.970;2023-12-20T04:27:36;75075.28;;;-142.11;100.00
14800;BME280;7491;57.750;11.970;2023-12-20T04:30:03;75061.00;;;-142.11;100.00
14800;BME280;7491;57.750;11.970;2023-12-20T04:32:30;75063.06;;;-142.11;100.00
14800;BME280;7491;57.750;11.970;2023-12-20T04:34:56;75063.06;;;-142.11;100.00
14800;BME280;7491;57.750;11.970;2023-12-20T04:37:23;75048.78;;;-142.11;100.00
14800;BME280;7491;57.750;11.970;2023-12-20T04:39:51;75056.94;;;-142.11;100.00
14800;BME280;7491;57.750;11.970;2023-12-20T04:42:18;75038.59;;;-142.11;100.00
14800;BME280;7491;57.750;11.970;2023-12-20T04:44:44;75036.56;;;-142.11;100.00
14800;BME280;7491;57.750;11.970;2023-12-20T04:47:11;75022.28;;;-142.11;100.00
14800;BME280;7491;57.750;11.970;2023-12-20T04:49:38;75026.38;;;-142.11;100.00
14800;BME280;7491;57.750;11.970;2023-12-20T04:52:05;75016.19;;;-142.11;100.00
14800;BME280;7491;57.750;11.970;2023-12-20T04:54:32;75030.44;;;-142.11;100.00
14800;BME280;7491;57.750;11.970;2023-12-20T04:57:00;75016.19;;;-142.11;100.00
14800;BME280;7491;57.750;11.970;2023-12-20T04:59:27;74997.84;;;-142.11;100.00
14800;BME280;7491;57.750;11.970;2023-12-20T05:01:54;75008.03;;;-142.11;100.00
14800;BME280;7491;57.750;11.970;2023-12-20T05:04:20;75010.06;;;-142.11;100.00
14800;BME280;7491;57.750;11.970;2023-12-20T05:06:47;75018.22;;;-142.11;100.00
14800;BME280;7491;57.750;11.970;2023-12-20T05:09:15;75012.09;;;-142.11;100.00
14800;BME280;7491;57.750;11.970;2023-12-20T05:11:41;75012.09;;;-142.11;100.00
14800;BME280;7491;57.750;11.970;2023-12-20T05:14:10;74999.88;;;-142.11;100.00
14800;BME280;7491;57.750;11.970;2023-12-20T05:16:36;74969.31;;;-142.11;100.00
14800;BME280;7491;57.750;11.970;2023-12-20T05:19:03;74983.56;;;-142.11;100.00
14800;BME280;7491;57.750;11.970;2023-12-20T05:21:32;74957.09;;;-142.11;100.00
14800;BME280;7491;57.750;11.970;2023-12-20T05:23:58;74967.28;;;-142.11;100.00
14800;BME280;7491;57.750;11.970;2023-12-20T05:26:25;74967.28;;;-142.11;100.00
14800;BME280;7491;57.750;11.970;2023-12-20T05:28:51;74957.09;;;-142.11;100.00
14800;BME280;7491;57.750;11.970;2023-12-20T05:31:20;74953.00;;;-142.11;100.00
14800;BME280;7491;57.750;11.970;2023-12-20T05:33:46;74971.34;;;-142.11;100.00
14800;BME280;7491;57.750;11.970;2023-12-20T05:36:13;74959.13;;;-142.11;100.00
14800;BME280;7491;57.750;11.970;2023-12-20T05:38:40;74963.19;;;-142.11;100.00
14800;BME280;7491;57.750;11.970;2023-12-20T05:41:07;74953.00;;;-142.11;100.00
14800;BME280;7491;57.750;11.970;2023-12-20T05:43:33;74936.72;;;-142.11;100.00
14800;BME280;7491;57.750;11.970;2023-12-20T05:46:00;74938.75;;;-142.11;100.00
14800;BME280;7491;57.750;11.970;2023-12-20T05:48:28;74942.81;;;-142.11;100.00
14800;BME280;7491;57.750;11.970;2023-12-20T05:50:55;74920.41;;;-142.11;100.00
14800;BME280;7491;57.750;11.970;2023-12-20T05:53:21;74942.81;;;-142.11;100.00
14800;BME280;7491;57.750;11.970;2023-12-20T05:55:48;74942.81;;;-142.11;100.00
14800;BME280;7491;57.750;11.970;2023-12-20T05:58:15;74940.78;;;-142.11;100.00
14800;BME280;7491;57.750;11.970;2023-12-20T06:00:41;74934.66;;;-142.11;100.00
14800;BME280;7491;57.750;11.970;2023-12-20T06:03:08;74932.63;;;-142.11;100.00
14800;BME280;7491;57.750;11.970;2023-12-20T06:05:37;74916.31;;;-142.11;100.00
14800;BME280;7491;57.750;11.970;2023-12-20T06:08:04;74944.84;;;-142.11;100.00
14800;BME280;7491;57.750;11.970;2023-12-20T06:10:32;74961.16;;;-142.11;100.00
14800;BME280;7491;57.750;11.970;2023-12-20T06:12:59;74922.44;;;-142.11;100.00
14800;BME280;7491;57.750;11.970;2023-12-20T06:15:26;74920.41;;;-142.11;100.00
14800;BME280;7491;57.750;11.970;2023-12-20T06:17:52;74928.56;;;-142.11;100.00
14800;BME280;7491;57.750;11.970;2023-12-20T06:20:19;74924.47;;;-142.11;100.00
14800;BME280;7491;57.750;11.970;2023-12-20T06:22:47;74920.41;;;-142.11;100.00
14800;BME280;7491;57.750;11.970;2023-12-20T06:25:14;74914.28;;;-142.11;100.00
14800;BME280;7491;57.750;11.970;2023-12-20T06:27:41;74906.13;;;-142.11;100.00
14800;BME280;7491;57.750;11.970;2023-12-20T06:30:08;74944.84;;;-142.11;100.00
14800;BME280;7491;57.750;11.970;2023-12-20T06:32:35;74920.41;;;-142.11;100.00
14800;BME280;7491;57.750;11.970;2023-12-20T06:35:03;74938.75;;;-142.11;100.00
14800;BME280;7491;57.750;11.970;2023-12-20T06:37:30;74920.41;;;-142.11;100.00
14800;BME280;7491;57.750;11.970;2023-12-20T06:39:58;74946.91;;;-142.11;100.00
14800;BME280;7491;57.750;11.970;2023-12-20T06:42:25;74930.59;;;-142.11;100.00
14800;BME280;7491;57.750;11.970;2023-12-20T06:44:52;74918.38;;;-142.11;100.00
14800;BME280;7491;57.750;11.970;2023-12-20T06:47:19;74928.56;;;-142.11;100.00
14800;BME280;7491;57.750;11.970;2023-12-20T06:49:46;74918.38;;;-142.11;100.00
14800;BME280;7491;57.750;11.970;2023-12-20T06:52:14;74918.38;;;-142.11;100.00
14800;BME280;7491;57.750;11.970;2023-12-20T06:54:40;74928.56;;;-142.11;100.00
14800;BME280;7491;57.750;11.970;2023-12-20T06:57:08;74940.78;;;-142.11;100.00
14800;BME280;7491;57.750;11.970;2023-12-20T06:59:38;74948.94;;;-142.11;100.00
14800;BME280;7491;57.750;11.970;2023-12-20T07:02:05;74928.56;;;-142.11;100.00
14800;BME280;7491;57.750;11.970;2023-12-20T07:04:32;74934.66;;;-142.11;100.00
14800;BME280;7491;57.750;11.970;2023-12-20T07:06:58;74932.63;;;-142.11;100.00
14800;BME280;7491;57.750;11.970;2023-12-20T07:09:25;74934.66;;;-142.11;100.00
14800;BME280;7491;57.750;11.970;2023-12-20T07:11:52;74924.47;;;-142.11;100.00
14800;BME280;7491;57.750;11.970;2023-12-20T07:14:20;74940.78;;;-142.11;100.00
14800;BME280;7491;57.750;11.970;2023-12-20T07:16:48;74944.84;;;-142.11;100.00
14800;BME280;7491;57.750;11.970;2023-12-20T07:19:14;74934.66;;;-142.11;100.00
14800;BME280;7491;57.750;11.970;2023-12-20T07:21:41;74928.56;;;-142.11;100.00
14800;BME280;7491;57.750;11.970;2023-12-20T07:24:08;74948.94;;;-142.11;100.00
14800;BME280;7491;57.750;11.970;2023-12-20T07:26:35;74946.91;;;-142.11;100.00
14800;BME280;7491;57.750;11.970;2023-12-20T07:29:03;74936.72;;;-142.11;100.00
14800;BME280;7491;57.750;11.970;2023-12-20T07:31:31;74928.56;;;-142.11;100.00
14800;BME280;7491;57.750;11.970;2023-12-20T07:33:58;74934.66;;;-142.11;100.00
14800;BME280;7491;57.750;11.970;2023-12-20T07:36:24;74959.13;;;-142.11;100.00
14800;BME280;7491;57.750;11.970;2023-12-20T07:38:51;74963.19;;;-142.11;100.00
14800;BME280;7491;57.750;11.970;2023-12-20T07:41:18;74948.94;;;-142.11;100.00
14800;BME280;7491;57.750;11.970;2023-12-20T07:43:46;74946.91;;;-142.11;100.00
14800;BME280;7491;57.750;11.970;2023-12-20T07:46:13;74953.00;;;-142.11;100.00
14800;BME280;7491;57.750;11.970;2023-12-20T07:48:41;74965.25;;;-142.11;100.00
14800;BME280;7491;57.750;11.970;2023-12-20T07:51:08;74965.25;;;-142.11;100.00
14800;BME280;7491;57.750;11.970;2023-12-20T07:53:35;74961.16;;;-142.11;100.00
14800;BME280;7491;57.750;11.970;2023-12-20T07:56:13;74959.13;;;-142.11;100.00
14800;BME280;7491;57.750;11.970;2023-12-20T07:58:40;74963.19;;;-142.11;100.00
14800;BME280;7491;57.750;11.970;2023-12-20T08:01:07;74950.97;;;-142.11;100.00
14800;BME280;7491;57.750;11.970;2023-12-20T08:03:34;74967.28;;;-142.11;100.00
14800;BME280;7491;57.750;11.970;2023-12-20T08:06:02;74959.13;;;-142.11;100.00
14800;BME280;7491;57.750;11.970;2023-12-20T08:08:29;74946.91;;;-142.11;100.00
14800;BME280;7491;57.750;11.970;2023-12-20T08:10:56;74959.13;;;-142.11;100.00
14800;BME280;7491;57.750;11.970;2023-12-20T08:13:24;74967.28;;;-142.11;100.00
14800;BME280;7491;57.750;11.970;2023-12-20T08:15:51;74948.94;;;-142.11;100.00
14800;BME280;7491;57.750;11.970;2023-12-20T08:18:18;74955.03;;;-142.11;100.00
14800;BME280;7491;57.750;11.970;2023-12-20T08:20:44;74955.03;;;-142.11;100.00
14800;BME280;7491;57.750;11.970;2023-12-20T08:23:13;74953.00;;;-142.11;100.00
14800;BME280;7491;57.750;11.970;2023-12-20T08:25:41;74934.66;;;-142.11;100.00
14800;BME280;7491;57.750;11.970;2023-12-20T08:28:07;74938.75;;;-142.11;100.00
14800;BME280;7491;57.750;11.970;2023-12-20T08:30:34;74944.84;;;-142.11;100.00
14800;BME280;7491;57.750;11.970;2023-12-20T08:33:01;74936.72;;;-142.11;100.00
14800;BME280;7491;57.750;11.970;2023-12-20T08:35:28;74932.63;;;-142.11;100.00
14800;BME280;7491;57.750;11.970;2023-12-20T08:37:54;74936.72;;;-142.11;100.00
14800;BME280;7491;57.750;11.970;2023-12-20T08:40:22;74914.28;;;-142.11;100.00
14800;BME280;7491;57.750;11.970;2023-12-20T08:42:49;74906.13;;;-142.11;100.00
14800;BME280;7491;57.750;11.970;2023-12-20T08:45:15;74918.38;;;-142.11;100.00
14800;BME280;7491;57.750;11.970;2023-12-20T08:47:42;74918.38;;;-142.11;100.00
14800;BME280;7491;57.750;11.970;2023-12-20T08:50:10;74908.19;;;-142.11;100.00
14800;BME280;7491;57.750;11.970;2023-12-20T08:52:37;74900.03;;;-142.11;100.00
14800;BME280;7491;57.750;11.970;2023-12-20T08:55:05;74893.91;;;-142.11;100.00
14800;BME280;7491;57.750;11.970;2023-12-20T08:57:33;74910.22;;;-142.11;100.00
14800;BME280;7491;57.750;11.970;2023-12-20T09:00:00;74900.03;;;-142.11;100.00
14800;BME280;7491;57.750;11.970;2023-12-20T09:02:26;74900.03;;;-142.11;100.00
14800;BME280;7491;57.750;11.970;2023-12-20T09:04:54;74893.91;;;-142.11;100.00
14800;BME280;7491;57.750;11.970;2023-12-20T09:07:22;74885.75;;;-142.11;100.00
14800;BME280;7491;57.750;11.970;2023-12-20T09:09:48;74889.84;;;-142.11;100.00
14800;BME280;7491;57.750;11.970;2023-12-20T09:12:15;74891.88;;;-142.11;100.00
14800;BME280;7491;57.750;11.970;2023-12-20T09:14:43;74900.03;;;-142.11;100.00
14800;BME280;7491;57.750;11.970;2023-12-20T09:17:10;74916.31;;;-142.11;100.00
14800;BME280;7491;57.750;11.970;2023-12-20T09:19:37;74922.44;;;-142.11;100.00
14800;BME280;7491;57.750;11.970;2023-12-20T09:22:04;74898.00;;;-142.11;100.00
14800;BME280;7491;57.750;11.970;2023-12-20T09:24:31;74902.06;;;-142.11;100.00
14800;BME280;7491;57.750;11.970;2023-12-20T09:26:58;74895.94;;;-142.11;100.00
14800;BME280;7491;57.750;11.970;2023-12-20T09:29:24;74883.72;;;-142.11;100.00
14800;BME280;7491;57.750;11.970;2023-12-20T09:31:53;74910.22;;;-142.11;100.00
14800;BME280;7491;57.750;11.970;2023-12-20T09:34:19;74891.88;;;-142.11;100.00
14800;BME280;7491;57.750;11.970;2023-12-20T09:36:46;74895.94;;;-142.11;100.00
14800;BME280;7491;57.750;11.970;2023-12-20T09:39:13;74887.81;;;-142.11;100.00
14800;BME280;7491;57.750;11.970;2023-12-20T09:41:44;74871.50;;;-142.11;100.00
14800;BME280;7491;57.750;11.970;2023-12-20T09:44:14;74883.72;;;-142.11;100.00
14800;BME280;7491;57.750;11.970;2023-12-20T09:46:44;74877.63;;;-142.11;100.00
14800;BME280;7491;57.750;11.970;2023-12-20T09:49:13;74875.56;;;-142.11;100.00
14800;BME280;7491;57.750;11.970;2023-12-20T09:51:40;74873.53;;;-142.11;100.00
14800;BME280;7491;57.750;11.970;2023-12-20T09:54:08;74873.53;;;-142.11;100.00
14800;BME280;7491;57.750;11.970;2023-12-20T09:56:37;74875.56;;;-142.11;100.00
14800;BME280;7491;57.750;11.970;2023-12-20T09:59:03;74881.69;;;-142.11;100.00
14800;BME280;7491;57.750;11.970;2023-12-20T10:01:31;74857.22;;;-142.11;100.00
14800;BME280;7491;57.750;11.970;2023-12-20T10:04:00;74877.63;;;-142.11;100.00
14800;BME280;7491;57.750;11.970;2023-12-20T10:06:28;74871.50;;;-142.11;100.00
14800;BME280;7491;57.750;11.970;2023-12-20T10:08:55;74840.94;;;-142.11;100.00
14800;BME280;7491;57.750;11.970;2023-12-20T10:11:21;74855.19;;;-142.11;100.00
14800;BME280;7491;57.750;11.970;2023-12-20T10:13:48;74826.66;;;-142.11;100.00
14800;BME280;7491;57.750;11.970;2023-12-20T10:16:15;74816.47;;;-142.11;100.00
14800;BME280;7491;57.750;11.970;2023-12-20T10:18:42;74822.59;;;-142.11;100.00
14800;BME280;7491;57.750;11.970;2023-12-20T10:21:08;74830.75;;;-142.11;100.00
14800;BME280;7491;57.750;11.970;2023-12-20T10:23:44;74816.47;;;-142.11;100.00
14800;BME280;7491;57.750;11.970;2023-12-20T10:26:22;74810.38;;;-142.11;100.00
14800;BME280;7491;57.750;11.970;2023-12-20T10:28:50;74834.81;;;-142.11;100.00
14800;BME280;7491;57.750;11.970;2023-12-20T10:31:29;74830.75;;;-142.11;100.00
14800;BME280;7491;57.750;11.970;2023-12-20T10:33:57;74834.81;;;-142.11;100.00
14800;BME280;7491;57.750;11.970;2023-12-20T10:36:25;74810.38;;;-142.11;100.00
14800;BME280;7491;57.750;11.970;2023-12-20T10:38:57;74787.94;;;-142.11;100.00
14800;BME280;7491;57.750;11.970;2023-12-20T10:41:25;74802.22;;;-142.11;100.00
14800;BME280;7491;57.750;11.970;2023-12-20T10:43:55;74777.75;;;-142.11;100.00
14800;BME280;7491;57.750;11.970;2023-12-20T10:46:22;74775.72;;;-142.11;100.00
14800;BME280;7491;57.750;11.970;2023-12-20T10:48:51;74783.88;;;-142.11;100.00
14800;BME280;7491;57.750;11.970;2023-12-20T10:51:20;74769.63;;;-142.11;100.00
14800;BME280;7491;57.750;11.970;2023-12-20T10:53:48;74765.53;;;-142.11;100.00
14800;BME280;7491;57.750;11.970;2023-12-20T10:56:17;74761.47;;;-142.11;100.00
14800;BME280;7491;57.750;11.970;2023-12-20T10:58:45;74765.53;;;-142.11;100.00
14800;BME280;7491;57.750;11.970;2023-12-20T11:01:13;74751.28;;;-142.11;100.00
14800;BME280;7491;57.750;11.970;2023-12-20T11:03:45;74734.97;;;-142.11;100.00
14800;BME280;7491;57.750;11.970;2023-12-20T11:06:25;74763.50;;;-142.11;100.00
14800;BME280;7491;57.750;11.970;2023-12-20T11:08:58;74767.56;;;-142.11;100.00
14800;BME280;7491;57.750;11.970;2023-12-20T11:11:41;74739.03;;;-142.11;100.00
14800;BME280;7491;57.750;11.970;2023-12-20T11:14:15;74755.34;;;-142.11;100.00
14800;BME280;7491;57.750;11.970;2023-12-20T11:16:43;74751.28;;;-142.11;100.00
14800;BME280;7491;57.750;11.970;2023-12-20T11:19:11;74743.13;;;-142.11;100.00
14800;BME280;7491;57.750;11.970;2023-12-20T11:21:40;74737.00;;;-142.11;100.00
14800;BME280;7491;57.750;11.970;2023-12-20T11:24:06;74739.03;;;-142.11;100.00
14800;BME280;7491;57.750;11.970;2023-12-20T11:26:33;74761.47;;;-142.11;100.00
14800;BME280;7491;57.750;11.970;2023-12-20T11:29:34;74785.91;;;-142.11;100.00
14800;BME280;7491;57.750;11.970;2023-12-20T11:32:02;74769.63;;;-142.11;100.00
14800;BME280;7491;57.750;11.970;2023-12-20T11:34:32;74763.50;;;-142.11;100.00
14800;BME280;7491;57.750;11.970;2023-12-20T11:36:59;74749.25;;;-142.11;100.00
14800;BME280;7491;57.750;11.970;2023-12-20T11:39:26;74732.94;;;-142.11;100.00
14800;BME280;7491;57.750;11.970;2023-12-20T11:41:55;74753.31;;;-142.11;100.00
14800;BME280;7491;57.750;11.970;2023-12-20T11:44:23;74749.25;;;-142.11;100.00
14800;BME280;7491;57.750;11.970;2023-12-20T11:46:52;74739.03;;;-142.11;100.00
14800;BME280;7491;57.750;11.970;2023-12-20T11:49:23;74743.13;;;-142.11;100.00
14800;BME280;7491;57.750;11.970;2023-12-20T11:51:50;74751.28;;;-142.11;100.00
14800;BME280;7491;57.750;11.970;2023-12-20T11:54:17;74737.00;;;-142.11;100.00
14800;BME280;7491;57.750;11.970;2023-12-20T11:56:43;74743.13;;;-142.11;100.00
14800;BME280;7491;57.750;11.970;2023-12-20T11:59:10;74767.56;;;-142.11;100.00
14800;BME280;7491;57.750;11.970;2023-12-20T12:01:37;74755.34;;;-142.11;100.00
14800;BME280;7491;57.750;11.970;2023-12-20T12:04:05;74753.31;;;-142.11;100.00
14800;BME280;7491;57.750;11.970;2023-12-20T12:06:32;74755.34;;;-142.11;100.00
14800;BME280;7491;57.750;11.970;2023-12-20T12:08:59;74755.34;;;-142.11;100.00
14800;BME280;7491;57.750;11.970;2023-12-20T12:11:25;74747.19;;;-142.11;100.00
14800;BME280;7491;57.750;11.970;2023-12-20T12:13:52;74753.31;;;-142.11;100.00
14800;BME280;7491;57.750;11.970;2023-12-20T12:16:19;74737.00;;;-142.11;100.00
14800;BME280;7491;57.750;11.970;2023-12-20T12:18:46;74753.31;;;-142.11;100.00
14800;BME280;7491;57.750;11.970;2023-12-20T12:21:22;74761.47;;;-142.11;100.00
14800;BME280;7491;57.750;11.970;2023-12-20T12:23:49;74755.34;;;-142.11;100.00
14800;BME280;7491;57.750;11.970;2023-12-20T12:26:15;74753.31;;;-142.11;100.00
14800;BME280;7491;57.750;11.970;2023-12-20T12:28:42;74759.44;;;-142.11;100.00
14800;BME280;7491;57.750;11.970;2023-12-20T12:31:13;74765.53;;;-142.11;100.00